sensor_id;sensor_type;location;lat;lon;timestamp;P1;durP1;ratioP1;P2;durP2;ratioP2
47844;SDS011;33605;48.822;8.796;2023-04-30T00:00:51;6.47;;;4.73;;
47844;SDS011;33605;48.822;8.796;2023-04-30T00:03:17;6.53;;;4.97;;
47844;SDS011;33605;48.822;8.796;2023-04-30T00:05:42;4.43;;;3.97;;
47844;SDS011;33605;48.822;8.796;2023-04-30T00:08:08;4.97;;;4.47;;
47844;SDS011;33605;48.822;8.796;2023-04-30T00:10:35;5.53;;;4.97;;
47844;SDS011;33605;48.822;8.796;2023-04-30T00:13:00;4.77;;;4.30;;
47844;SDS011;33605;48.822;8.796;2023-04-30T00:15:26;7.17;;;5.77;;
47844;SDS011;33605;48.822;8.796;2023-04-30T00:17:52;5.27;;;4.77;;
47844;SDS011;33605;48.822;8.796;2023-04-30T00:20:17;4.70;;;4.20;;
47844;SDS011;33605;48.822;8.796;2023-04-30T00:22:43;5.20;;;4.37;;
47844;SDS011;33605;48.822;8.796;2023-04-30T00:25:09;7.30;;;5.40;;
47844;SDS011;33605;48.822;8.796;2023-04-30T00:27:35;5.23;;;4.73;;
47844;SDS011;33605;48.822;8.796;2023-04-30T00:30:00;5.80;;;5.20;;
47844;SDS011;33605;48.822;8.796;2023-04-30T00:32:26;6.40;;;5.37;;
47844;SDS011;33605;48.822;8.796;2023-04-30T00:34:52;5.30;;;4.27;;
47844;SDS011;33605;48.822;8.796;2023-04-30T00:37:18;6.20;;;5.00;;
47844;SDS011;33605;48.822;8.796;2023-04-30T00:39:44;5.67;;;5.07;;
47844;SDS011;33605;48.822;8.796;2023-04-30T00:42:09;5.50;;;5.00;;
47844;SDS011;33605;48.822;8.796;2023-04-30T00:44:35;5.80;;;5.03;;
47844;SDS011;33605;48.822;8.796;2023-04-30T00:47:01;4.73;;;4.30;;
47844;SDS011;33605;48.822;8.796;2023-04-30T00:49:26;5.33;;;4.83;;
47844;SDS011;33605;48.822;8.796;2023-04-30T00:51:52;8.27;;;4.77;;
47844;SDS011;33605;48.822;8.796;2023-04-30T00:54:19;5.00;;;4.60;;
47844;SDS011;33605;48.822;8.796;2023-04-30T00:56:45;4.90;;;4.50;;
47844;SDS011;33605;48.822;8.796;2023-04-30T00:59:11;6.87;;;5.37;;
47844;SDS011;33605;48.822;8.796;2023-04-30T01:01:40;5.80;;;5.17;;
47844;SDS011;33605;48.822;8.796;2023-04-30T01:04:05;6.80;;;6.00;;
47844;SDS011;33605;48.822;8.796;2023-04-30T01:06:31;6.40;;;5.60;;
47844;SDS011;33605;48.822;8.796;2023-04-30T01:08:57;7.40;;;5.50;;
47844;SDS011;33605;48.822;8.796;2023-04-30T01:15:18;6.97;;;5.83;;
47844;SDS011;33605;48.822;8.796;2023-04-30T01:17:26;6.97;;;6.27;;
47844;SDS011;33605;48.822;8.796;2023-04-30T01:19:55;6.20;;;5.60;;
47844;SDS011;33605;48.822;8.796;2023-04-30T01:22:26;5.83;;;5.20;;
47844;SDS011;33605;48.822;8.796;2023-04-30T01:25:04;9.33;;;5.40;;
47844;SDS011;33605;48.822;8.796;2023-04-30T01:28:09;8.33;;;6.47;;
47844;SDS011;33605;48.822;8.796;2023-04-30T01:30:41;7.20;;;5.93;;
47844;SDS011;33605;48.822;8.796;2023-04-30T01:33:11;8.50;;;6.87;;
47844;SDS011;33605;48.822;8.796;2023-04-30T01:35:45;8.13;;;5.80;;
47844;SDS011;33605;48.822;8.796;2023-04-30T01:41:34;7.80;;;6.37;;
47844;SDS011;33605;48.822;8.796;2023-04-30T01:46:45;7.70;;;6.20;;
47844;SDS011;33605;48.822;8.796;2023-04-30T01:49:50;8.53;;;6.63;;
47844;SDS011;33605;48.822;8.796;2023-04-30T01:57:59;7.00;;;5.70;;
47844;SDS011;33605;48.822;8.796;2023-04-30T02:00:28;7.23;;;6.13;;
47844;SDS011;33605;48.822;8.796;2023-04-30T02:02:57;7.40;;;6.27;;
47844;SDS011;33605;48.822;8.796;2023-04-30T02:05:23;10.93;;;6.33;;
47844;SDS011;33605;48.822;8.796;2023-04-30T02:07:49;6.30;;;5.70;;
47844;SDS011;33605;48.822;8.796;2023-04-30T02:10:17;7.90;;;6.17;;
47844;SDS011;33605;48.822;8.796;2023-04-30T02:12:44;8.67;;;6.20;;
47844;SDS011;33605;48.822;8.796;2023-04-30T02:15:10;7.40;;;6.70;;
47844;SDS011;33605;48.822;8.796;2023-04-30T02:17:36;8.53;;;7.00;;
47844;SDS011;33605;48.822;8.796;2023-04-30T02:20:02;7.43;;;6.40;;
47844;SDS011;33605;48.822;8.796;2023-04-30T02:22:28;7.40;;;6.10;;
47844;SDS011;33605;48.822;8.796;2023-04-30T02:24:54;5.97;;;5.37;;
47844;SDS011;33605;48.822;8.796;2023-04-30T02:27:21;7.67;;;5.57;;
47844;SDS011;33605;48.822;8.796;2023-04-30T02:29:48;9.07;;;6.40;;
47844;SDS011;33605;48.822;8.796;2023-04-30T02:32:14;6.53;;;5.73;;
47844;SDS011;33605;48.822;8.796;2023-04-30T02:34:40;6.87;;;5.87;;
47844;SDS011;33605;48.822;8.796;2023-04-30T02:37:06;7.00;;;5.90;;
47844;SDS011;33605;48.822;8.796;2023-04-30T02:39:32;6.17;;;5.47;;
47844;SDS011;33605;48.822;8.796;2023-04-30T02:41:57;6.00;;;5.40;;
47844;SDS011;33605;48.822;8.796;2023-04-30T02:44:23;6.13;;;5.30;;
47844;SDS011;33605;48.822;8.796;2023-04-30T02:46:49;5.93;;;5.00;;
47844;SDS011;33605;48.822;8.796;2023-04-30T02:49:14;6.13;;;5.50;;
47844;SDS011;33605;48.822;8.796;2023-04-30T02:51:40;7.07;;;6.10;;
47844;SDS011;33605;48.822;8.796;2023-04-30T02:54:06;6.20;;;5.33;;
47844;SDS011;33605;48.822;8.796;2023-04-30T02:56:32;8.30;;;6.87;;
47844;SDS011;33605;48.822;8.796;2023-04-30T02:58:58;9.60;;;7.33;;
47844;SDS011;33605;48.822;8.796;2023-04-30T03:01:24;8.33;;;6.80;;
47844;SDS011;33605;48.822;8.796;2023-04-30T03:03:50;8.30;;;6.00;;
47844;SDS011;33605;48.822;8.796;2023-04-30T03:06:16;8.70;;;7.67;;
47844;SDS011;33605;48.822;8.796;2023-04-30T03:08:41;8.50;;;7.10;;
47844;SDS011;33605;48.822;8.796;2023-04-30T03:11:07;7.90;;;7.10;;
47844;SDS011;33605;48.822;8.796;2023-04-30T03:13:32;8.83;;;6.90;;
47844;SDS011;33605;48.822;8.796;2023-04-30T03:16:01;9.20;;;6.87;;
47844;SDS011;33605;48.822;8.796;2023-04-30T03:18:28;8.27;;;7.30;;
47844;SDS011;33605;48.822;8.796;2023-04-30T03:20:54;7.87;;;7.07;;
47844;SDS011;33605;48.822;8.796;2023-04-30T03:23:21;7.53;;;6.73;;
47844;SDS011;33605;48.822;8.796;2023-04-30T03:25:47;8.87;;;7.93;;
47844;SDS011;33605;48.822;8.796;2023-04-30T03:28:13;9.67;;;7.47;;
47844;SDS011;33605;48.822;8.796;2023-04-30T03:30:39;9.00;;;8.10;;
47844;SDS011;33605;48.822;8.796;2023-04-30T03:33:05;9.73;;;7.87;;
47844;SDS011;33605;48.822;8.796;2023-04-30T03:35:30;9.30;;;8.30;;
47844;SDS011;33605;48.822;8.796;2023-04-30T03:37:56;10.07;;;7.30;;
47844;SDS011;33605;48.822;8.796;2023-04-30T03:40:22;8.30;;;7.40;;
47844;SDS011;33605;48.822;8.796;2023-04-30T03:42:47;9.27;;;8.03;;
47844;SDS011;33605;48.822;8.796;2023-04-30T03:45:13;9.47;;;7.93;;
47844;SDS011;33605;48.822;8.796;2023-04-30T03:47:39;8.40;;;7.47;;
47844;SDS011;33605;48.822;8.796;2023-04-30T03:50:04;8.67;;;7.67;;
47844;SDS011;33605;48.822;8.796;2023-04-30T03:52:31;10.73;;;8.17;;
47844;SDS011;33605;48.822;8.796;2023-04-30T03:54:57;10.50;;;8.90;;
47844;SDS011;33605;48.822;8.796;2023-04-30T03:57:23;11.03;;;8.60;;
47844;SDS011;33605;48.822;8.796;2023-04-30T03:59:49;9.40;;;7.50;;
47844;SDS011;33605;48.822;8.796;2023-04-30T04:02:15;9.23;;;7.87;;
47844;SDS011;33605;48.822;8.796;2023-04-30T04:04:41;13.80;;;7.83;;
47844;SDS011;33605;48.822;8.796;2023-04-30T04:07:06;8.40;;;7.30;;
47844;SDS011;33605;48.822;8.796;2023-04-30T04:09:33;13.07;;;8.33;;
47844;SDS011;33605;48.822;8.796;2023-04-30T04:11:59;9.50;;;7.30;;
47844;SDS011;33605;48.822;8.796;2023-04-30T04:14:27;6.83;;;4.70;;
47844;SDS011;33605;48.822;8.796;2023-04-30T04:16:53;5.90;;;5.30;;
47844;SDS011;33605;48.822;8.796;2023-04-30T04:19:21;4.73;;;4.23;;
47844;SDS011;33605;48.822;8.796;2023-04-30T04:21:47;7.90;;;4.60;;
47844;SDS011;33605;48.822;8.796;2023-04-30T04:24:13;5.33;;;4.83;;
47844;SDS011;33605;48.822;8.796;2023-04-30T04:26:39;6.90;;;6.20;;
47844;SDS011;33605;48.822;8.796;2023-04-30T04:29:05;8.20;;;6.17;;
47844;SDS011;33605;48.822;8.796;2023-04-30T04:31:33;7.60;;;6.43;;
47844;SDS011;33605;48.822;8.796;2023-04-30T04:33:59;6.97;;;6.27;;
47844;SDS011;33605;48.822;8.796;2023-04-30T04:36:28;8.07;;;6.03;;
47844;SDS011;33605;48.822;8.796;2023-04-30T04:38:55;9.60;;;6.90;;
47844;SDS011;33605;48.822;8.796;2023-04-30T04:41:27;8.87;;;7.93;;
47844;SDS011;33605;48.822;8.796;2023-04-30T04:43:53;9.17;;;7.80;;
47844;SDS011;33605;48.822;8.796;2023-04-30T04:46:20;9.57;;;7.50;;
47844;SDS011;33605;48.822;8.796;2023-04-30T04:48:47;9.43;;;8.00;;
47844;SDS011;33605;48.822;8.796;2023-04-30T04:51:13;9.00;;;8.00;;
47844;SDS011;33605;48.822;8.796;2023-04-30T04:53:39;9.93;;;7.60;;
47844;SDS011;33605;48.822;8.796;2023-04-30T04:56:05;6.23;;;5.47;;
47844;SDS011;33605;48.822;8.796;2023-04-30T04:58:31;5.37;;;4.60;;
47844;SDS011;33605;48.822;8.796;2023-04-30T05:00:57;4.73;;;4.33;;
47844;SDS011;33605;48.822;8.796;2023-04-30T05:03:24;5.43;;;4.93;;
47844;SDS011;33605;48.822;8.796;2023-04-30T05:05:51;7.00;;;4.70;;
47844;SDS011;33605;48.822;8.796;2023-04-30T05:08:16;5.57;;;4.80;;
47844;SDS011;33605;48.822;8.796;2023-04-30T05:10:42;8.93;;;6.20;;
47844;SDS011;33605;48.822;8.796;2023-04-30T05:13:08;8.90;;;7.70;;
47844;SDS011;33605;48.822;8.796;2023-04-30T05:15:33;8.20;;;7.40;;
47844;SDS011;33605;48.822;8.796;2023-04-30T05:17:59;8.50;;;7.37;;
47844;SDS011;33605;48.822;8.796;2023-04-30T05:20:25;9.07;;;7.70;;
47844;SDS011;33605;48.822;8.796;2023-04-30T05:22:50;8.20;;;7.40;;
47844;SDS011;33605;48.822;8.796;2023-04-30T05:25:16;10.07;;;7.90;;
47844;SDS011;33605;48.822;8.796;2023-04-30T05:27:42;12.73;;;7.67;;
47844;SDS011;33605;48.822;8.796;2023-04-30T05:30:08;9.50;;;7.93;;
47844;SDS011;33605;48.822;8.796;2023-04-30T05:32:34;10.93;;;8.60;;
47844;SDS011;33605;48.822;8.796;2023-04-30T05:35:00;9.70;;;8.03;;
47844;SDS011;33605;48.822;8.796;2023-04-30T05:37:25;10.07;;;8.00;;
47844;SDS011;33605;48.822;8.796;2023-04-30T05:39:51;10.53;;;8.07;;
47844;SDS011;33605;48.822;8.796;2023-04-30T05:42:20;11.97;;;9.40;;
47844;SDS011;33605;48.822;8.796;2023-04-30T05:44:46;10.20;;;8.57;;
47844;SDS011;33605;48.822;8.796;2023-04-30T05:47:13;8.87;;;7.67;;
47844;SDS011;33605;48.822;8.796;2023-04-30T05:49:38;9.70;;;8.13;;
47844;SDS011;33605;48.822;8.796;2023-04-30T05:52:13;9.77;;;8.70;;
47844;SDS011;33605;48.822;8.796;2023-04-30T05:54:41;10.23;;;8.93;;
47844;SDS011;33605;48.822;8.796;2023-04-30T05:57:06;9.50;;;8.50;;
47844;SDS011;33605;48.822;8.796;2023-04-30T05:59:32;9.33;;;8.20;;
47844;SDS011;33605;48.822;8.796;2023-04-30T06:01:57;9.07;;;8.00;;
47844;SDS011;33605;48.822;8.796;2023-04-30T06:04:23;10.57;;;9.27;;
47844;SDS011;33605;48.822;8.796;2023-04-30T06:06:49;11.80;;;8.70;;
47844;SDS011;33605;48.822;8.796;2023-04-30T06:09:14;10.87;;;9.13;;
47844;SDS011;33605;48.822;8.796;2023-04-30T06:11:40;11.50;;;10.10;;
47844;SDS011;33605;48.822;8.796;2023-04-30T06:14:06;9.50;;;8.50;;
47844;SDS011;33605;48.822;8.796;2023-04-30T06:16:32;10.67;;;9.27;;
47844;SDS011;33605;48.822;8.796;2023-04-30T06:18:57;13.23;;;9.47;;
47844;SDS011;33605;48.822;8.796;2023-04-30T06:21:23;10.03;;;9.03;;
47844;SDS011;33605;48.822;8.796;2023-04-30T06:23:50;10.77;;;9.53;;
47844;SDS011;33605;48.822;8.796;2023-04-30T06:26:16;10.60;;;9.33;;
47844;SDS011;33605;48.822;8.796;2023-04-30T06:28:43;11.03;;;9.47;;
47844;SDS011;33605;48.822;8.796;2023-04-30T06:31:09;11.20;;;9.40;;
47844;SDS011;33605;48.822;8.796;2023-04-30T06:33:35;10.10;;;9.00;;
47844;SDS011;33605;48.822;8.796;2023-04-30T06:36:00;12.00;;;9.97;;
47844;SDS011;33605;48.822;8.796;2023-04-30T06:38:26;10.60;;;9.50;;
47844;SDS011;33605;48.822;8.796;2023-04-30T06:40:52;12.37;;;8.97;;
47844;SDS011;33605;48.822;8.796;2023-04-30T06:43:17;10.53;;;9.13;;
47844;SDS011;33605;48.822;8.796;2023-04-30T06:45:43;10.30;;;8.13;;
47844;SDS011;33605;48.822;8.796;2023-04-30T06:48:09;12.27;;;9.83;;
47844;SDS011;33605;48.822;8.796;2023-04-30T06:50:34;11.30;;;9.87;;
47844;SDS011;33605;48.822;8.796;2023-04-30T06:53:07;11.00;;;9.53;;
47844;SDS011;33605;48.822;8.796;2023-04-30T06:55:33;10.40;;;9.30;;
47844;SDS011;33605;48.822;8.796;2023-04-30T06:57:59;11.27;;;9.40;;
47844;SDS011;33605;48.822;8.796;2023-04-30T07:00:24;12.43;;;10.13;;
47844;SDS011;33605;48.822;8.796;2023-04-30T07:02:50;13.87;;;9.77;;
47844;SDS011;33605;48.822;8.796;2023-04-30T07:05:16;12.47;;;9.47;;
47844;SDS011;33605;48.822;8.796;2023-04-30T07:07:42;11.80;;;9.63;;
47844;SDS011;33605;48.822;8.796;2023-04-30T07:10:08;11.50;;;9.37;;
47844;SDS011;33605;48.822;8.796;2023-04-30T07:12:34;12.37;;;9.70;;
47844;SDS011;33605;48.822;8.796;2023-04-30T07:14:59;11.13;;;9.20;;
47844;SDS011;33605;48.822;8.796;2023-04-30T07:17:25;10.03;;;9.03;;
47844;SDS011;33605;48.822;8.796;2023-04-30T07:19:51;10.90;;;9.47;;
47844;SDS011;33605;48.822;8.796;2023-04-30T07:22:16;11.20;;;10.00;;
47844;SDS011;33605;48.822;8.796;2023-04-30T07:24:42;13.07;;;9.30;;
47844;SDS011;33605;48.822;8.796;2023-04-30T07:27:09;10.70;;;9.20;;
47844;SDS011;33605;48.822;8.796;2023-04-30T07:29:35;8.77;;;7.87;;
47844;SDS011;33605;48.822;8.796;2023-04-30T07:32:01;10.83;;;9.63;;
47844;SDS011;33605;48.822;8.796;2023-04-30T07:34:27;9.83;;;8.73;;
47844;SDS011;33605;48.822;8.796;2023-04-30T07:36:52;10.43;;;9.30;;
47844;SDS011;33605;48.822;8.796;2023-04-30T07:39:18;12.20;;;9.27;;
47844;SDS011;33605;48.822;8.796;2023-04-30T07:41:44;11.10;;;10.00;;
47844;SDS011;33605;48.822;8.796;2023-04-30T07:44:10;12.13;;;10.83;;
47844;SDS011;33605;48.822;8.796;2023-04-30T07:46:36;11.90;;;10.70;;
47844;SDS011;33605;48.822;8.796;2023-04-30T07:49:03;10.03;;;9.03;;
47844;SDS011;33605;48.822;8.796;2023-04-30T07:51:28;9.43;;;8.43;;
47844;SDS011;33605;48.822;8.796;2023-04-30T07:53:55;9.97;;;8.90;;
47844;SDS011;33605;48.822;8.796;2023-04-30T07:56:21;10.40;;;9.10;;
47844;SDS011;33605;48.822;8.796;2023-04-30T07:58:47;11.50;;;8.83;;
47844;SDS011;33605;48.822;8.796;2023-04-30T08:01:14;8.43;;;7.40;;
47844;SDS011;33605;48.822;8.796;2023-04-30T08:03:40;12.70;;;9.07;;
47844;SDS011;33605;48.822;8.796;2023-04-30T08:06:06;10.77;;;8.50;;
47844;SDS011;33605;48.822;8.796;2023-04-30T08:08:32;10.23;;;9.13;;
47844;SDS011;33605;48.822;8.796;2023-04-30T08:10:58;8.73;;;7.87;;
47844;SDS011;33605;48.822;8.796;2023-04-30T08:13:24;8.70;;;7.90;;
47844;SDS011;33605;48.822;8.796;2023-04-30T08:15:50;8.93;;;8.03;;
47844;SDS011;33605;48.822;8.796;2023-04-30T08:18:16;9.00;;;8.10;;
47844;SDS011;33605;48.822;8.796;2023-04-30T08:20:42;9.77;;;8.00;;
47844;SDS011;33605;48.822;8.796;2023-04-30T08:23:08;10.30;;;8.10;;
47844;SDS011;33605;48.822;8.796;2023-04-30T08:25:34;9.77;;;7.10;;
47844;SDS011;33605;48.822;8.796;2023-04-30T08:28:01;6.57;;;5.87;;
47844;SDS011;33605;48.822;8.796;2023-04-30T08:30:27;9.33;;;7.10;;
47844;SDS011;33605;48.822;8.796;2023-04-30T08:32:53;7.00;;;6.30;;
47844;SDS011;33605;48.822;8.796;2023-04-30T08:35:19;8.57;;;7.67;;
47844;SDS011;33605;48.822;8.796;2023-04-30T08:37:45;7.50;;;6.60;;
47844;SDS011;33605;48.822;8.796;2023-04-30T08:40:11;7.50;;;6.80;;
47844;SDS011;33605;48.822;8.796;2023-04-30T08:42:40;7.43;;;6.50;;
47844;SDS011;33605;48.822;8.796;2023-04-30T08:45:07;7.60;;;6.70;;
47844;SDS011;33605;48.822;8.796;2023-04-30T08:47:37;7.17;;;6.47;;
47844;SDS011;33605;48.822;8.796;2023-04-30T08:50:04;9.30;;;6.90;;
47844;SDS011;33605;48.822;8.796;2023-04-30T08:52:30;6.10;;;5.50;;
47844;SDS011;33605;48.822;8.796;2023-04-30T08:55:00;6.07;;;5.37;;
47844;SDS011;33605;48.822;8.796;2023-04-30T08:57:26;6.17;;;5.57;;
47844;SDS011;33605;48.822;8.796;2023-04-30T08:59:53;6.27;;;5.63;;
47844;SDS011;33605;48.822;8.796;2023-04-30T09:02:19;7.23;;;5.63;;
47844;SDS011;33605;48.822;8.796;2023-04-30T09:04:45;7.10;;;6.00;;
47844;SDS011;33605;48.822;8.796;2023-04-30T09:07:11;7.00;;;6.10;;
47844;SDS011;33605;48.822;8.796;2023-04-30T09:09:38;6.03;;;5.43;;
47844;SDS011;33605;48.822;8.796;2023-04-30T09:12:14;10.40;;;6.80;;
47844;SDS011;33605;48.822;8.796;2023-04-30T09:15:04;6.20;;;5.40;;
47844;SDS011;33605;48.822;8.796;2023-04-30T09:17:29;5.17;;;4.60;;
47844;SDS011;33605;48.822;8.796;2023-04-30T09:20:08;6.10;;;5.00;;
47844;SDS011;33605;48.822;8.796;2023-04-30T09:22:35;5.13;;;4.67;;
47844;SDS011;33605;48.822;8.796;2023-04-30T09:25:01;5.07;;;4.67;;
47844;SDS011;33605;48.822;8.796;2023-04-30T09:27:27;5.73;;;4.87;;
47844;SDS011;33605;48.822;8.796;2023-04-30T09:29:53;5.17;;;4.67;;
47844;SDS011;33605;48.822;8.796;2023-04-30T09:32:20;9.23;;;4.57;;
47844;SDS011;33605;48.822;8.796;2023-04-30T09:34:46;4.97;;;4.57;;
47844;SDS011;33605;48.822;8.796;2023-04-30T09:37:12;4.83;;;4.10;;
47844;SDS011;33605;48.822;8.796;2023-04-30T09:39:49;5.50;;;4.13;;
47844;SDS011;33605;48.822;8.796;2023-04-30T09:42:16;5.30;;;4.80;;
47844;SDS011;33605;48.822;8.796;2023-04-30T09:44:42;4.50;;;4.10;;
47844;SDS011;33605;48.822;8.796;2023-04-30T09:49:39;6.97;;;5.37;;
47844;SDS011;33605;48.822;8.796;2023-04-30T09:52:06;6.93;;;4.83;;
47844;SDS011;33605;48.822;8.796;2023-04-30T09:54:33;5.30;;;4.80;;
47844;SDS011;33605;48.822;8.796;2023-04-30T09:57:00;4.87;;;4.47;;
47844;SDS011;33605;48.822;8.796;2023-04-30T09:59:31;4.57;;;3.87;;
47844;SDS011;33605;48.822;8.796;2023-04-30T10:01:59;5.73;;;4.57;;
47844;SDS011;33605;48.822;8.796;2023-04-30T10:04:27;4.50;;;4.10;;
47844;SDS011;33605;48.822;8.796;2023-04-30T10:06:53;6.90;;;6.10;;
47844;SDS011;33605;48.822;8.796;2023-04-30T10:09:21;8.60;;;7.00;;
47844;SDS011;33605;48.822;8.796;2023-04-30T10:11:48;8.83;;;8.00;;
47844;SDS011;33605;48.822;8.796;2023-04-30T10:14:15;6.87;;;5.27;;
47844;SDS011;33605;48.822;8.796;2023-04-30T10:16:43;5.83;;;5.30;;
47844;SDS011;33605;48.822;8.796;2023-04-30T10:19:13;5.27;;;4.80;;
47844;SDS011;33605;48.822;8.796;2023-04-30T10:21:39;4.10;;;3.70;;
47844;SDS011;33605;48.822;8.796;2023-04-30T10:24:08;4.80;;;3.93;;
47844;SDS011;33605;48.822;8.796;2023-04-30T10:26:34;3.90;;;3.60;;
47844;SDS011;33605;48.822;8.796;2023-04-30T10:29:00;4.40;;;4.00;;
47844;SDS011;33605;48.822;8.796;2023-04-30T10:31:27;4.43;;;3.97;;
47844;SDS011;33605;48.822;8.796;2023-04-30T10:36:25;4.30;;;4.00;;
47844;SDS011;33605;48.822;8.796;2023-04-30T10:38:56;5.27;;;4.10;;
47844;SDS011;33605;48.822;8.796;2023-04-30T10:41:22;4.50;;;4.10;;
47844;SDS011;33605;48.822;8.796;2023-04-30T10:43:53;3.93;;;3.63;;
47844;SDS011;33605;48.822;8.796;2023-04-30T10:46:22;3.87;;;3.47;;
47844;SDS011;33605;48.822;8.796;2023-04-30T10:48:51;4.03;;;3.73;;
47844;SDS011;33605;48.822;8.796;2023-04-30T10:51:18;4.20;;;3.80;;
47844;SDS011;33605;48.822;8.796;2023-04-30T10:53:45;7.30;;;4.87;;
47844;SDS011;33605;48.822;8.796;2023-04-30T10:56:12;5.00;;;4.50;;
47844;SDS011;33605;48.822;8.796;2023-04-30T10:58:39;8.93;;;4.37;;
47844;SDS011;33605;48.822;8.796;2023-04-30T11:01:07;5.50;;;5.00;;
47844;SDS011;33605;48.822;8.796;2023-04-30T11:03:34;4.50;;;4.10;;
47844;SDS011;33605;48.822;8.796;2023-04-30T11:06:22;3.60;;;3.30;;
47844;SDS011;33605;48.822;8.796;2023-04-30T11:08:50;4.27;;;3.87;;
47844;SDS011;33605;48.822;8.796;2023-04-30T11:11:17;4.30;;;3.90;;
47844;SDS011;33605;48.822;8.796;2023-04-30T11:13:45;4.20;;;3.60;;
47844;SDS011;33605;48.822;8.796;2023-04-30T11:16:12;4.53;;;3.90;;
47844;SDS011;33605;48.822;8.796;2023-04-30T11:18:44;3.50;;;3.20;;
47844;SDS011;33605;48.822;8.796;2023-04-30T11:21:11;4.10;;;3.70;;
47844;SDS011;33605;48.822;8.796;2023-04-30T11:23:41;4.30;;;3.90;;
47844;SDS011;33605;48.822;8.796;2023-04-30T11:26:07;3.53;;;3.20;;
47844;SDS011;33605;48.822;8.796;2023-04-30T11:28:35;4.27;;;3.33;;
47844;SDS011;33605;48.822;8.796;2023-04-30T11:31:02;5.40;;;4.23;;
47844;SDS011;33605;48.822;8.796;2023-04-30T11:33:29;3.77;;;3.47;;
47844;SDS011;33605;48.822;8.796;2023-04-30T11:35:56;4.13;;;3.73;;
47844;SDS011;33605;48.822;8.796;2023-04-30T11:38:26;4.60;;;3.87;;
47844;SDS011;33605;48.822;8.796;2023-04-30T11:40:53;3.77;;;3.47;;
47844;SDS011;33605;48.822;8.796;2023-04-30T11:43:20;3.50;;;3.20;;
47844;SDS011;33605;48.822;8.796;2023-04-30T11:45:59;3.40;;;3.17;;
47844;SDS011;33605;48.822;8.796;2023-04-30T11:48:32;3.93;;;3.53;;
47844;SDS011;33605;48.822;8.796;2023-04-30T11:50:59;3.80;;;3.40;;
47844;SDS011;33605;48.822;8.796;2023-04-30T11:53:25;3.20;;;3.00;;
47844;SDS011;33605;48.822;8.796;2023-04-30T11:55:52;3.33;;;3.10;;
47844;SDS011;33605;48.822;8.796;2023-04-30T11:58:19;4.40;;;3.90;;
47844;SDS011;33605;48.822;8.796;2023-04-30T12:00:46;6.30;;;3.70;;
47844;SDS011;33605;48.822;8.796;2023-04-30T12:03:13;4.27;;;3.97;;
47844;SDS011;33605;48.822;8.796;2023-04-30T12:05:42;4.07;;;3.47;;
47844;SDS011;33605;48.822;8.796;2023-04-30T12:08:11;4.33;;;3.93;;
47844;SDS011;33605;48.822;8.796;2023-04-30T12:10:37;4.00;;;3.70;;
47844;SDS011;33605;48.822;8.796;2023-04-30T12:13:03;5.30;;;3.77;;
47844;SDS011;33605;48.822;8.796;2023-04-30T12:15:29;3.93;;;3.53;;
47844;SDS011;33605;48.822;8.796;2023-04-30T12:17:57;3.33;;;3.10;;
47844;SDS011;33605;48.822;8.796;2023-04-30T12:20:25;4.57;;;3.43;;
47844;SDS011;33605;48.822;8.796;2023-04-30T12:22:52;3.57;;;3.27;;
47844;SDS011;33605;48.822;8.796;2023-04-30T12:25:18;4.13;;;3.33;;
47844;SDS011;33605;48.822;8.796;2023-04-30T12:27:45;4.50;;;3.87;;
47844;SDS011;33605;48.822;8.796;2023-04-30T12:30:12;5.23;;;4.07;;
47844;SDS011;33605;48.822;8.796;2023-04-30T12:32:39;7.33;;;4.30;;
47844;SDS011;33605;48.822;8.796;2023-04-30T12:35:05;3.63;;;3.33;;
47844;SDS011;33605;48.822;8.796;2023-04-30T12:37:32;3.87;;;3.53;;
47844;SDS011;33605;48.822;8.796;2023-04-30T12:39:58;4.50;;;3.83;;
47844;SDS011;33605;48.822;8.796;2023-04-30T12:42:30;4.00;;;3.60;;
47844;SDS011;33605;48.822;8.796;2023-04-30T12:44:58;3.63;;;3.33;;
47844;SDS011;33605;48.822;8.796;2023-04-30T12:47:25;4.23;;;3.60;;
47844;SDS011;33605;48.822;8.796;2023-04-30T12:49:51;4.23;;;3.83;;
47844;SDS011;33605;48.822;8.796;2023-04-30T12:52:17;4.90;;;4.40;;
47844;SDS011;33605;48.822;8.796;2023-04-30T12:54:47;3.73;;;3.43;;
47844;SDS011;33605;48.822;8.796;2023-04-30T12:57:13;3.87;;;3.57;;
47844;SDS011;33605;48.822;8.796;2023-04-30T12:59:54;5.20;;;3.80;;
47844;SDS011;33605;48.822;8.796;2023-04-30T13:02:22;5.50;;;4.20;;
47844;SDS011;33605;48.822;8.796;2023-04-30T13:04:49;4.80;;;4.30;;
47844;SDS011;33605;48.822;8.796;2023-04-30T13:07:15;4.23;;;3.93;;
47844;SDS011;33605;48.822;8.796;2023-04-30T13:09:41;4.00;;;3.70;;
47844;SDS011;33605;48.822;8.796;2023-04-30T13:12:07;4.33;;;3.93;;
47844;SDS011;33605;48.822;8.796;2023-04-30T13:14:34;4.87;;;4.10;;
47844;SDS011;33605;48.822;8.796;2023-04-30T13:17:00;4.00;;;3.70;;
47844;SDS011;33605;48.822;8.796;2023-04-30T13:19:29;3.93;;;3.37;;
47844;SDS011;33605;48.822;8.796;2023-04-30T13:21:55;3.50;;;3.20;;
47844;SDS011;33605;48.822;8.796;2023-04-30T13:24:22;4.97;;;4.40;;
47844;SDS011;33605;48.822;8.796;2023-04-30T13:26:48;3.80;;;3.50;;
47844;SDS011;33605;48.822;8.796;2023-04-30T13:29:15;3.70;;;3.40;;
47844;SDS011;33605;48.822;8.796;2023-04-30T13:31:41;5.33;;;3.53;;
47844;SDS011;33605;48.822;8.796;2023-04-30T13:34:07;3.70;;;3.33;;
47844;SDS011;33605;48.822;8.796;2023-04-30T13:36:34;4.37;;;3.57;;
47844;SDS011;33605;48.822;8.796;2023-04-30T13:39:00;4.37;;;3.97;;
47844;SDS011;33605;48.822;8.796;2023-04-30T13:41:26;3.77;;;3.37;;
47844;SDS011;33605;48.822;8.796;2023-04-30T13:43:52;4.53;;;3.60;;
47844;SDS011;33605;48.822;8.796;2023-04-30T13:46:18;4.53;;;3.63;;
47844;SDS011;33605;48.822;8.796;2023-04-30T13:48:44;3.80;;;3.30;;
47844;SDS011;33605;48.822;8.796;2023-04-30T13:51:15;3.50;;;3.20;;
47844;SDS011;33605;48.822;8.796;2023-04-30T13:53:41;3.60;;;3.30;;
47844;SDS011;33605;48.822;8.796;2023-04-30T13:56:08;5.17;;;3.50;;
47844;SDS011;33605;48.822;8.796;2023-04-30T13:58:34;3.80;;;2.93;;
47844;SDS011;33605;48.822;8.796;2023-04-30T14:01:00;4.60;;;3.37;;
47844;SDS011;33605;48.822;8.796;2023-04-30T14:03:26;3.37;;;3.10;;
47844;SDS011;33605;48.822;8.796;2023-04-30T14:05:53;3.40;;;3.10;;
47844;SDS011;33605;48.822;8.796;2023-04-30T14:08:19;3.63;;;3.33;;
47844;SDS011;33605;48.822;8.796;2023-04-30T14:10:45;3.60;;;3.30;;
47844;SDS011;33605;48.822;8.796;2023-04-30T14:13:11;3.67;;;3.37;;
47844;SDS011;33605;48.822;8.796;2023-04-30T14:15:37;3.83;;;3.53;;
47844;SDS011;33605;48.822;8.796;2023-04-30T14:18:03;4.47;;;4.10;;
47844;SDS011;33605;48.822;8.796;2023-04-30T14:20:29;4.80;;;3.60;;
47844;SDS011;33605;48.822;8.796;2023-04-30T14:22:55;4.20;;;3.90;;
47844;SDS011;33605;48.822;8.796;2023-04-30T14:25:21;3.60;;;3.30;;
47844;SDS011;33605;48.822;8.796;2023-04-30T14:27:48;4.13;;;3.83;;
47844;SDS011;33605;48.822;8.796;2023-04-30T14:30:14;3.60;;;3.30;;
47844;SDS011;33605;48.822;8.796;2023-04-30T14:32:40;4.13;;;3.73;;
47844;SDS011;33605;48.822;8.796;2023-04-30T14:35:06;3.57;;;3.27;;
47844;SDS011;33605;48.822;8.796;2023-04-30T14:37:33;4.47;;;3.97;;
47844;SDS011;33605;48.822;8.796;2023-04-30T14:39:59;3.40;;;3.10;;
47844;SDS011;33605;48.822;8.796;2023-04-30T14:42:26;6.30;;;4.80;;
47844;SDS011;33605;48.822;8.796;2023-04-30T14:44:52;3.77;;;3.47;;
47844;SDS011;33605;48.822;8.796;2023-04-30T14:47:18;10.43;;;9.37;;
47844;SDS011;33605;48.822;8.796;2023-04-30T14:49:45;41.70;;;22.83;;
47844;SDS011;33605;48.822;8.796;2023-04-30T14:52:13;198.90;;;97.37;;
47844;SDS011;33605;48.822;8.796;2023-04-30T14:54:39;141.97;;;61.03;;
47844;SDS011;33605;48.822;8.796;2023-04-30T14:57:05;213.37;;;84.53;;
47844;SDS011;33605;48.822;8.796;2023-04-30T14:59:32;142.50;;;64.23;;
47844;SDS011;33605;48.822;8.796;2023-04-30T15:01:58;106.73;;;66.53;;
47844;SDS011;33605;48.822;8.796;2023-04-30T15:04:24;72.60;;;43.23;;